Time;durP1;ratioP1;P1;durP2;ratioP2;P2;SDS_P1;SDS_P2;PMS_P1;PMS_P2;Temp;Humidity;BMP_temperature;BMP_pressure;BME280_temperature;BME280_humidity;BME280_pressure;Samples;Min_cycle;Max_cycle;Signal;HPM_P1;HPM_P2
2023/10/29 00:00:17;;;;;;;1.97;1.87;;;;;;;7.16;100.00;95313.09;5032947;28;101858;-81
2023/10/29 00:02:45;;;;;;;1.77;1.67;;;;;;;7.20;100.00;95313.38;5028211;27;105405;-81
2023/10/29 00:05:12;;;;;;;4.10;2.20;;;;;;;7.22;100.00;95311.28;5029002;28;101931;-81
2023/10/29 00:07:40;;;;;;;2.53;1.80;;;;;;;7.26;100.00;95304.44;5029323;28;105262;-81
2023/10/29 00:10:08;;;;;;;1.93;1.73;;;;;;;7.28;100.00;95304.97;5028481;28;105536;-81
2023/10/29 00:12:35;;;;;;;2.17;2.00;;;;;;;7.27;100.00;95298.91;5029055;28;102282;-81
2023/10/29 00:15:03;;;;;;;2.23;1.90;;;;;;;7.13;100.00;95303.03;5030616;28;102646;-81
2023/10/29 00:17:30;;;;;;;3.17;2.03;;;;;;;7.14;100.00;95309.13;5028587;28;105577;-81
2023/10/29 00:19:59;;;;;;;2.27;2.07;;;;;;;7.07;100.00;95300.59;5029185;28;102200;-81
2023/10/29 00:22:26;;;;;;;2.67;2.27;;;;;;;7.04;100.00;95293.19;5031933;28;103859;-81
2023/10/29 00:24:55;;;;;;;1.87;1.70;;;;;;;7.14;100.00;95295.91;5029097;28;101913;-81
2023/10/29 00:27:22;;;;;;;3.80;1.80;;;;;;;6.86;100.00;95288.28;5028767;28;105519;-81
2023/10/29 00:29:49;;;;;;;2.47;1.90;;;;;;;6.99;100.00;95293.16;5028379;28;104139;-81
2023/10/29 00:32:18;;;;;;;3.50;2.03;;;;;;;7.04;100.00;95283.41;5029027;28;102362;-81
2023/10/29 00:34:47;;;;;;;1.70;1.60;;;;;;;6.99;100.00;95285.22;5029092;28;105298;-82
2023/10/29 00:37:14;;;;;;;3.77;1.90;;;;;;;7.03;100.00;95294.25;5029373;27;104723;-82
2023/10/29 00:39:42;;;;;;;2.03;1.70;;;;;;;6.89;100.00;95274.59;5028840;28;101909;-82
2023/10/29 00:42:11;;;;;;;2.47;1.80;;;;;;;7.00;100.00;95287.63;5031724;28;105316;-82
2023/10/29 00:44:38;;;;;;;2.63;2.27;;;;;;;7.07;100.00;95282.09;5028670;28;101803;-82
2023/10/29 00:47:06;;;;;;;2.67;2.30;;;;;;;7.11;100.00;95276.06;5028629;28;105124;-82
2023/10/29 00:49:34;;;;;;;4.03;2.37;;;;;;;7.16;100.00;95285.88;5028058;28;105073;-82
2023/10/29 00:52:01;;;;;;;4.03;2.73;;;;;;;7.16;100.00;95288.50;5028798;28;101891;-82
2023/10/29 00:54:28;;;;;;;2.83;2.30;;;;;;;7.17;100.00;95288.25;5028734;28;105043;-82
2023/10/29 00:56:55;;;;;;;2.40;2.17;;;;;;;7.17;100.00;95290.91;5027605;28;105010;-82
2023/10/29 00:59:24;;;;;;;2.47;2.27;;;;;;;7.21;100.00;95283.25;5028598;28;101974;-82
2023/10/29 01:01:54;;;;;;;2.03;1.93;;;;;;;7.15;100.00;95286.91;5028517;28;105439;-82
2023/10/29 01:04:21;;;;;;;2.43;1.97;;;;;;;7.10;100.00;95274.44;5031455;28;105146;-82
2023/10/29 01:06:48;;;;;;;6.03;4.00;;;;;;;7.08;100.00;95278.41;5028345;28;105765;-82
2023/10/29 01:09:16;;;;;;;5.90;3.97;;;;;;;7.13;100.00;95283.72;5027801;28;105557;-82
2023/10/29 01:11:43;;;;;;;4.90;3.90;;;;;;;7.05;100.00;95274.44;5028052;28;101980;-82
2023/10/29 01:14:10;;;;;;;5.13;3.80;;;;;;;7.03;100.00;95281.81;5028474;27;105411;-82
2023/10/29 01:16:38;;;;;;;3.87;3.40;;;;;;;7.05;100.00;95278.91;5031628;28;104989;-82
2023/10/29 01:19:05;;;;;;;3.67;3.27;;;;;;;7.02;100.00;95274.94;5032081;28;101945;-82
2023/10/29 01:21:33;;;;;;;3.37;2.97;;;;;;;7.03;100.00;95279.16;5032021;28;105191;-82
2023/10/29 01:24:02;;;;;;;4.30;3.20;;;;;;;7.03;100.00;95276.53;5031521;28;105413;-82
2023/10/29 01:26:29;;;;;;;3.80;3.30;;;;;;;6.99;100.00;95286.00;5035062;28;101886;-82
2023/10/29 01:28:56;;;;;;;3.60;3.30;;;;;;;6.92;100.00;95263.53;5031086;28;105211;-82
2023/10/29 01:31:23;;;;;;;3.70;3.23;;;;;;;6.89;100.00;95254.25;5031817;28;101975;-82
2023/10/29 01:33:53;;;;;;;2.70;2.40;;;;;;;7.24;100.00;95256.28;5031835;28;104868;-82
2023/10/29 01:36:20;;;;;;;4.43;2.67;;;;;;;7.23;100.00;95267.91;5031123;28;105029;-82
2023/10/29 01:38:47;;;;;;;3.30;2.37;;;;;;;7.27;100.00;95263.72;5031601;28;101984;-82
2023/10/29 01:41:14;;;;;;;3.10;2.23;;;;;;;7.30;100.00;95265.84;5031517;28;105413;-82
2023/10/29 01:43:42;;;;;;;2.57;2.37;;;;;;;7.24;100.00;95266.84;5031115;28;103982;-82
2023/10/29 01:46:10;;;;;;;2.77;2.20;;;;;;;7.12;100.00;95253.06;5031561;28;101896;-82
2023/10/29 01:48:37;;;;;;;2.67;2.10;;;;;;;7.20;100.00;95260.50;5034373;28;105342;-82
2023/10/29 01:51:09;;;;;;;4.13;2.40;;;;;;;7.09;100.00;95250.94;5031335;28;102042;-82
2023/10/29 01:53:36;;;;;;;4.07;2.47;;;;;;;6.97;100.00;95239.75;5031241;28;104837;-82
2023/10/29 01:56:07;;;;;;;2.60;1.97;;;;;;;6.97;100.00;95245.03;5030249;27;104983;-82
2023/10/29 01:58:34;;;;;;;2.13;1.97;;;;;;;6.96;100.00;95211.72;5031247;28;101846;-82
2023/10/29 02:01:01;;;;;;;1.90;1.80;;;;;;;6.87;100.00;95221.97;5031481;28;105273;-82
2023/10/29 02:03:30;;;;;;;2.00;1.80;;;;;;;6.85;100.00;95218.00;5030849;28;105062;-81
2023/10/29 02:05:57;;;;;;;2.13;1.93;;;;;;;6.98;100.00;95215.72;5031228;28;101950;-81
2023/10/29 02:08:25;;;;;;;2.20;2.10;;;;;;;7.03;100.00;95223.66;5031025;28;103936;-81
2023/10/29 02:10:52;;;;;;;2.73;1.90;;;;;;;6.94;100.00;95213.84;5033662;28;105479;-81
2023/10/29 02:13:19;;;;;;;2.50;2.30;;;;;;;6.96;100.00;95214.38;5031138;28;105583;-81
2023/10/29 02:15:47;;;;;;;2.10;2.00;;;;;;;7.00;100.00;95218.91;5030500;28;105507;-81
2023/10/29 02:18:15;;;;;;;2.20;2.00;;;;;;;6.99;100.00;95219.94;5030914;28;102062;-81
2023/10/29 02:20:43;;;;;;;2.00;1.90;;;;;;;7.04;100.00;95225.25;5031146;28;104981;-81
2023/10/29 02:23:11;;;;;;;2.30;2.10;;;;;;;7.20;100.00;95228.78;5030300;28;104721;-81
2023/10/29 02:25:38;;;;;;;3.50;2.30;;;;;;;7.30;100.00;95228.84;5030775;27;102391;-81
2023/10/29 02:28:05;;;;;;;4.40;2.50;;;;;;;7.40;100.00;95232.31;5030323;28;103616;-81
2023/10/29 02:30:32;;;;;;;2.57;2.20;;;;;;;7.45;100.00;95216.47;5030159;28;105567;-81
2023/10/29 02:32:59;;;;;;;2.43;2.23;;;;;;;7.41;100.00;95212.75;5034358;28;102063;-81
2023/10/29 02:35:28;;;;;;;2.57;2.27;;;;;;;7.36;100.00;95215.38;5030319;28;105693;-81
2023/10/29 02:37:55;;;;;;;5.80;2.30;;;;;;;7.33;100.00;95213.25;5030609;28;101866;-81
2023/10/29 02:40:23;;;;;;;4.20;2.30;;;;;;;7.33;100.00;95218.53;5030764;28;105080;-81
2023/10/29 02:42:50;;;;;;;2.73;2.30;;;;;;;7.30;100.00;95226.97;5029904;28;105547;-81
2023/10/29 02:45:17;;;;;;;2.50;2.30;;;;;;;7.29;100.00;95232.50;5030625;28;102009;-81
2023/10/29 02:47:44;;;;;;;2.13;1.93;;;;;;;7.25;100.00;95236.75;5030661;28;105338;-81
2023/10/29 02:50:11;;;;;;;2.13;2.03;;;;;;;7.26;100.00;95233.81;5029950;28;105136;-81
2023/10/29 02:52:38;;;;;;;2.30;2.10;;;;;;;7.27;100.00;95234.63;5033934;28;102393;-81
2023/10/29 02:55:06;;;;;;;1.80;1.70;;;;;;;7.29;100.00;95227.22;5029555;28;105374;-81
2023/10/29 02:57:34;;;;;;;2.67;2.37;;;;;;;7.24;100.00;95213.97;5030422;28;101911;-81
2023/10/29 03:00:01;;;;;;;3.87;2.10;;;;;;;7.22;100.00;95216.09;5030367;28;105285;-82
2023/10/29 03:02:28;;;;;;;2.20;2.00;;;;;;;7.15;100.00;95224.25;5029822;28;104106;-82
2023/10/29 03:04:55;;;;;;;2.17;1.97;;;;;;;7.14;100.00;95229.81;5030451;28;102019;-82
2023/10/29 03:07:21;;;;;;;2.47;1.97;;;;;;;7.20;100.00;95234.06;5030069;28;105323;-82
2023/10/29 03:09:49;;;;;;;3.53;2.17;;;;;;;7.24;100.00;95237.78;5029703;28;105558;-82
2023/10/29 03:12:15;;;;;;;2.30;2.10;;;;;;;7.23;100.00;95236.19;5030053;28;101990;-82
2023/10/29 03:14:44;;;;;;;6.13;2.50;;;;;;;7.23;100.00;95231.72;5033303;28;105840;-82
2023/10/29 03:17:11;;;;;;;2.17;1.90;;;;;;;7.21;100.00;95239.09;5030108;28;101897;-82
2023/10/29 03:19:37;;;;;;;3.40;2.30;;;;;;;7.18;100.00;95230.88;5030267;28;103796;-82
2023/10/29 03:22:04;;;;;;;2.30;2.10;;;;;;;7.21;100.00;95235.66;5029508;28;105316;-82
2023/10/29 03:24:32;;;;;;;2.20;1.90;;;;;;;7.20;100.00;95237.50;5030093;28;101922;-82
2023/10/29 03:26:58;;;;;;;2.83;2.20;;;;;;;7.16;100.00;95233.00;5030068;28;105252;-82
2023/10/29 03:29:25;;;;;;;2.33;2.23;;;;;;;7.19;100.00;95238.56;5029314;28;105699;-82
2023/10/29 03:31:54;;;;;;;3.07;2.17;;;;;;;7.25;100.00;95232.25;5029914;28;102492;-82
2023/10/29 03:34:21;;;;;;;2.30;2.10;;;;;;;7.23;100.00;95218.50;5029823;28;105337;-82
2023/10/29 03:36:48;;;;;;;2.10;2.00;;;;;;;7.11;100.00;95225.84;5032399;28;105766;-81
2023/10/29 03:39:16;;;;;;;2.00;1.90;;;;;;;7.09;100.00;95237.72;5028443;27;104017;-81
2023/10/29 03:41:44;;;;;;;2.10;1.90;;;;;;;7.07;100.00;95232.69;5029005;28;105426;-81
2023/10/29 03:44:11;;;;;;;1.97;1.70;;;;;;;7.03;100.00;95244.03;5030024;28;101907;-81
2023/10/29 03:46:38;;;;;;;2.70;2.50;;;;;;;6.97;100.00;95245.03;5029677;28;105951;-81
2023/10/29 03:49:06;;;;;;;4.83;2.80;;;;;;;6.82;100.00;95248.38;5030416;28;103327;-81
2023/10/29 03:51:34;;;;;;;3.53;3.23;;;;;;;6.73;100.00;95254.38;5029435;28;101908;-82
2023/10/29 03:54:02;;;;;;;3.30;3.00;;;;;;;6.65;100.00;95253.00;5029626;28;103781;-82
2023/10/29 03:56:30;;;;;;;3.13;2.87;;;;;;;6.64;100.00;95245.34;5028715;27;102758;-81
2023/10/29 03:58:58;;;;;;;2.90;2.70;;;;;;;6.70;100.00;95239.06;5032966;28;102496;-81
2023/10/29 04:01:27;;;;;;;2.67;2.43;;;;;;;6.51;100.00;95240.50;5028895;28;105157;-81
2023/10/29 04:03:55;;;;;;;3.37;2.70;;;;;;;6.46;100.00;95230.69;5029437;28;101935;-81
2023/10/29 04:06:23;;;;;;;3.77;2.40;;;;;;;6.50;100.00;95233.63;5029154;28;105288;-81
2023/10/29 04:08:50;;;;;;;2.37;2.17;;;;;;;6.54;100.00;95237.34;5028579;28;105435;-81
2023/10/29 04:11:18;;;;;;;2.80;2.37;;;;;;;6.51;100.00;95229.94;5028927;28;101924;-81
2023/10/29 04:13:46;;;;;;;2.00;1.90;;;;;;;6.53;100.00;95238.38;5029358;28;104008;-81
2023/10/29 04:16:13;;;;;;;2.33;2.13;;;;;;;6.52;100.00;95234.16;5028608;28;105622;-81
2023/10/29 04:18:40;;;;;;;2.47;2.27;;;;;;;6.61;100.00;95230.00;5028988;28;102238;-81
2023/10/29 04:21:07;;;;;;;2.40;2.20;;;;;;;6.63;100.00;95212.06;5032128;28;105200;-81
2023/10/29 04:23:36;;;;;;;3.07;2.13;;;;;;;6.60;100.00;95213.34;5029194;28;102248;-81
2023/10/29 04:26:04;;;;;;;2.93;1.70;;;;;;;6.66;100.00;95201.78;5029137;28;105274;-81
2023/10/29 04:28:32;;;;;;;2.43;2.10;;;;;;;6.59;100.00;95205.69;5029790;27;102741;-81
2023/10/29 04:31:00;;;;;;;2.00;1.90;;;;;;;6.58;100.00;95209.38;5029032;28;101759;-81
2023/10/29 04:33:27;;;;;;;2.37;2.17;;;;;;;6.59;100.00;95203.03;5028938;28;105573;-81
2023/10/29 04:35:55;;;;;;;2.40;2.20;;;;;;;6.64;100.00;95211.00;5028444;28;105568;-81
2023/10/29 04:38:23;;;;;;;1.93;1.70;;;;;;;6.62;100.00;95206.00;5028989;28;101991;-81
2023/10/29 04:40:52;;;;;;;2.80;1.87;;;;;;;6.54;100.00;95214.38;5028930;28;105152;-81
2023/10/29 04:43:18;;;;;;;2.40;2.20;;;;;;;6.40;100.00;95200.03;5031529;28;102264;-81
2023/10/29 04:45:45;;;;;;;2.07;1.97;;;;;;;6.40;100.00;95197.38;5028743;28;105418;-81
2023/10/29 04:48:12;;;;;;;2.50;2.30;;;;;;;6.41;100.00;95195.53;5027965;28;105823;-81
2023/10/29 04:50:39;;;;;;;3.10;2.80;;;;;;;6.35;100.00;95196.53;5028598;28;101807;-81
2023/10/29 04:53:06;;;;;;;2.80;2.60;;;;;;;6.27;100.00;95200.44;5028798;28;105317;-81
2023/10/29 04:55:33;;;;;;;2.53;2.30;;;;;;;6.38;100.00;95191.53;5027480;28;106015;-81
2023/10/29 04:58:01;;;;;;;3.57;2.40;;;;;;;6.41;100.00;95183.13;5028565;28;101969;-81
2023/10/29 05:00:29;;;;;;;2.57;2.30;;;;;;;6.35;100.00;95178.88;5028699;28;105630;-81
2023/10/29 05:02:56;;;;;;;6.83;2.80;;;;;;;6.36;100.00;95175.16;5031284;28;105394;-81
2023/10/29 05:05:23;;;;;;;2.73;2.53;;;;;;;6.30;100.00;95172.75;5028658;28;104030;-81
2023/10/29 05:07:51;;;;;;;2.60;2.40;;;;;;;6.32;100.00;95173.31;5027969;28;105088;-81
2023/10/29 05:10:20;;;;;;;2.77;2.50;;;;;;;6.28;100.00;95172.22;5028343;28;101943;-81
2023/10/29 05:12:47;;;;;;;2.77;2.50;;;;;;;6.28;100.00;95161.66;5028144;28;105714;-81
2023/10/29 05:15:15;;;;;;;3.47;2.30;;;;;;;6.18;100.00;95162.38;5027845;28;105661;-81
2023/10/29 05:17:42;;;;;;;4.50;3.70;;;;;;;6.18;100.00;95153.66;5028363;28;101979;-81
2023/10/29 05:20:10;;;;;;;3.13;2.83;;;;;;;6.11;100.00;95161.78;5028189;28;105689;-81
2023/10/29 05:22:38;;;;;;;2.80;2.60;;;;;;;6.15;100.00;95154.13;5027776;28;105420;-81
2023/10/29 05:25:08;;;;;;;3.03;2.73;;;;;;;5.98;100.00;95150.84;5033222;28;102185;-81
2023/10/29 05:27:35;;;;;;;2.50;2.30;;;;;;;5.91;100.00;95152.91;5027672;28;105479;-81
2023/10/29 05:30:01;;;;;;;4.10;2.60;;;;;;;5.84;100.00;95157.59;5028119;28;101897;-82
2023/10/29 05:32:31;;;;;;;2.70;2.50;;;;;;;5.96;100.00;95155.59;5028150;28;105474;-82
2023/10/29 05:34:58;;;;;;;2.60;2.40;;;;;;;5.97;100.00;95165.09;5027745;28;105345;-82
2023/10/29 05:37:26;;;;;;;2.80;2.50;;;;;;;5.98;100.00;95158.75;5028300;28;102324;-82
2023/10/29 05:39:53;;;;;;;3.30;2.30;;;;;;;5.97;100.00;95150.06;5029501;28;102714;-82
2023/10/29 05:42:20;;;;;;;4.00;2.10;;;;;;;5.95;100.00;95156.63;5027536;28;105495;-82
2023/10/29 05:44:49;;;;;;;2.73;2.53;;;;;;;5.92;100.00;95154.50;5028131;28;101973;-82
2023/10/29 05:47:16;;;;;;;3.20;2.90;;;;;;;5.96;100.00;95159.03;5032048;28;102552;-81
2023/10/29 05:49:44;;;;;;;5.30;3.67;;;;;;;5.88;100.00;95159.47;5027967;28;101911;-81
2023/10/29 05:52:11;;;;;;;5.60;3.93;;;;;;;5.87;100.00;95149.16;5027792;28;105423;-81
2023/10/29 05:54:38;;;;;;;6.37;4.00;;;;;;;5.82;100.00;95159.66;5027238;28;105339;-81
2023/10/29 05:57:05;;;;;;;5.40;4.03;;;;;;;5.84;100.00;95154.97;5027773;28;102143;-81
2023/10/29 05:59:32;;;;;;;3.23;3.03;;;;;;;5.88;100.00;95161.31;5028069;28;105579;-81
2023/10/29 06:01:59;;;;;;;3.83;3.47;;;;;;;5.95;100.00;95170.59;5028684;28;105170;-81
2023/10/29 06:04:27;;;;;;;4.03;3.30;;;;;;;5.89;100.00;95165.56;5031274;28;102014;-81
2023/10/29 06:06:55;;;;;;;3.30;2.97;;;;;;;5.90;100.00;95182.97;5031108;28;105564;-81
2023/10/29 06:09:22;;;;;;;4.03;3.73;;;;;;;5.98;100.00;95177.22;5034006;28;105273;-81
2023/10/29 06:11:49;;;;;;;3.00;2.70;;;;;;;5.94;100.00;95178.78;5031330;28;105175;-81
2023/10/29 06:14:16;;;;;;;3.93;3.00;;;;;;;5.96;100.00;95174.06;5030573;28;105064;-81
2023/10/29 06:16:44;;;;;;;4.90;3.00;;;;;;;6.04;100.00;95187.59;5030827;28;101950;-81
2023/10/29 06:19:11;;;;;;;2.93;2.60;;;;;;;6.10;100.00;95185.78;5031212;28;105238;-81
2023/10/29 06:21:40;;;;;;;4.10;3.20;;;;;;;6.24;100.00;95171.13;5030474;28;105572;-81
2023/10/29 06:24:09;;;;;;;2.97;2.67;;;;;;;6.19;100.00;95185.06;5030920;28;101946;-81
2023/10/29 06:26:36;;;;;;;2.90;2.70;;;;;;;6.35;100.00;95172.78;5031037;28;105485;-81
2023/10/29 06:29:03;;;;;;;3.10;2.37;;;;;;;6.47;100.00;95178.66;5029998;28;105843;-81
2023/10/29 06:31:31;;;;;;;3.07;2.60;;;;;;;6.55;100.00;95170.28;5034302;28;102047;-81
2023/10/29 06:33:59;;;;;;;3.20;2.90;;;;;;;6.61;100.00;95167.41;5030068;28;105453;-81
2023/10/29 06:36:26;;;;;;;2.70;2.50;;;;;;;6.74;100.00;95159.03;5030808;28;101910;-81
2023/10/29 06:38:53;;;;;;;2.63;2.43;;;;;;;6.84;100.00;95145.09;5030668;28;105844;-81
2023/10/29 06:41:22;;;;;;;3.13;2.80;;;;;;;7.04;100.00;95151.25;5030021;28;105570;-81
2023/10/29 06:43:49;;;;;;;5.40;2.80;;;;;;;7.13;100.00;95149.72;5030318;28;101922;-81
2023/10/29 06:46:16;;;;;;;2.20;1.97;;;;;;;7.92;100.00;95139.59;5030738;28;104843;-81
2023/10/29 06:48:43;;;;;;;2.33;1.90;;;;;;;8.42;100.00;95131.66;5030032;28;105748;-81
2023/10/29 06:51:10;;;;;;;2.70;2.50;;;;;;;8.75;100.00;95129.22;5034073;28;101936;-81
2023/10/29 06:53:37;;;;;;;3.47;2.60;;;;;;;8.76;100.00;95132.63;5029833;28;105365;-81
2023/10/29 06:56:05;;;;;;;3.03;2.63;;;;;;;8.76;100.00;95120.19;5029857;27;101988;-82
2023/10/29 06:58:34;;;;;;;2.57;2.10;;;;;;;8.82;100.00;95115.66;5030347;28;105219;-82
2023/10/29 07:01:05;;;;;;;2.67;2.20;;;;;;;8.86;100.00;95119.38;5029750;28;105307;-82
2023/10/29 07:03:33;;;;;;;2.13;1.93;;;;;;;9.02;100.00;95115.59;5030448;28;101879;-82
2023/10/29 07:06:07;;;;;;;1.60;1.50;;;;;;;9.17;100.00;95113.66;5030359;28;104548;-82
2023/10/29 07:08:34;;;;;;;1.70;1.60;;;;;;;9.17;100.00;95105.72;5029528;28;106006;-82
2023/10/29 07:11:02;;;;;;;3.33;1.40;;;;;;;9.30;100.00;95101.69;5029886;28;102064;-82
2023/10/29 07:13:28;;;;;;;1.40;1.30;;;;;;;9.50;100.00;95101.56;5032756;27;105109;-82
2023/10/29 07:15:57;;;;;;;1.20;1.10;;;;;;;10.28;100.00;95095.97;5030257;28;101917;-82
2023/10/29 07:18:24;;;;;;;1.60;1.00;;;;;;;11.31;100.00;95090.84;5030279;28;105445;-82
2023/10/29 07:20:53;;;;;;;2.50;1.00;;;;;;;11.74;100.00;95087.09;5029375;28;104355;-82
2023/10/29 07:23:20;;;;;;;1.97;1.20;;;;;;;12.13;100.00;95092.88;5030087;28;101978;-81
2023/10/29 07:25:47;;;;;;;1.03;0.93;;;;;;;12.27;100.00;95075.06;5029947;28;105230;-81
2023/10/29 07:28:14;;;;;;;1.73;0.97;;;;;;;12.43;100.00;95077.19;5029120;28;105652;-82
2023/10/29 07:30:41;;;;;;;2.63;1.20;;;;;;;12.54;100.00;95073.25;5031354;28;101838;-82
2023/10/29 07:33:10;;;;;;;0.87;0.87;;;;;;;13.05;100.00;95067.78;5031233;27;102834;-82
2023/10/29 07:35:37;;;;;;;1.20;1.10;;;;;;;13.15;100.00;95080.94;5034050;28;102824;-82
2023/10/29 07:38:05;;;;;;;1.30;1.00;;;;;;;13.05;100.00;95063.25;5029733;28;103965;-82
2023/10/29 07:40:32;;;;;;;1.63;1.53;;;;;;;12.85;100.00;95078.81;5029192;28;105151;-82
2023/10/29 07:42:59;;;;;;;1.40;1.30;;;;;;;12.76;100.00;95088.59;5029592;28;102040;-82
2023/10/29 07:45:26;;;;;;;1.40;1.30;;;;;;;13.03;100.00;95080.66;5029729;28;104990;-82
2023/10/29 07:47:53;;;;;;;2.10;1.50;;;;;;;13.09;100.00;95090.13;5029137;28;105726;-82
2023/10/29 07:50:21;;;;;;;2.83;1.80;;;;;;;12.54;100.00;95083.91;5029530;28;101898;-82
2023/10/29 07:52:48;;;;;;;13.77;9.67;;;;;;;12.02;100.00;95078.94;5029382;28;105690;-82
2023/10/29 07:55:16;;;;;;;2.47;2.27;;;;;;;11.65;100.00;95078.16;5028520;27;104717;-82
2023/10/29 07:57:43;;;;;;;3.83;2.73;;;;;;;11.59;100.00;95087.31;5033051;28;102191;-82
2023/10/29 08:00:13;;;;;;;1.77;1.67;;;;;;;11.17;100.00;95088.09;5028760;28;105395;-82
2023/10/29 08:02:40;;;;;;;6.40;5.80;;;;;;;11.36;100.00;95088.13;5029434;28;102032;-82
2023/10/29 08:05:08;;;;;;;6.87;6.17;;;;;;;11.48;100.00;95081.31;5029538;28;104839;-82
2023/10/29 08:07:36;;;;;;;5.07;4.67;;;;;;;11.47;100.00;95094.91;5028831;28;105061;-82
2023/10/29 08:10:04;;;;;;;4.17;3.20;;;;;;;11.45;100.00;95097.06;5029205;28;101934;-82
2023/10/29 08:12:31;;;;;;;2.83;2.30;;;;;;;11.32;100.00;95108.41;5028855;28;105280;-82
2023/10/29 08:14:58;;;;;;;3.00;2.10;;;;;;;11.28;100.00;95107.41;5028733;28;105244;-82
2023/10/29 08:17:25;;;;;;;2.33;2.13;;;;;;;11.40;100.00;95110.44;5029200;28;101919;-82
2023/10/29 08:19:52;;;;;;;2.17;2.07;;;;;;;11.23;100.00;95116.22;5031939;28;105120;-82
2023/10/29 08:22:19;;;;;;;3.03;1.97;;;;;;;11.09;100.00;95123.34;5029095;28;101990;-82
2023/10/29 08:24:48;;;;;;;2.40;2.20;;;;;;;11.11;100.00;95120.38;5028410;27;105445;-82
2023/10/29 08:27:14;;;;;;;3.80;2.07;;;;;;;11.15;100.00;95124.84;5028315;28;105641;-82
2023/10/29 08:29:43;;;;;;;4.57;2.40;;;;;;;11.44;100.00;95124.78;5028785;28;102033;-82
2023/10/29 08:32:10;;;;;;;2.70;1.93;;;;;;;11.65;100.00;95124.25;5028946;28;105597;-82
2023/10/29 08:34:37;;;;;;;1.90;1.80;;;;;;;11.77;100.00;95126.47;5028359;28;105732;-82
2023/10/29 08:37:04;;;;;;;2.57;1.80;;;;;;;11.92;100.00;95126.25;5028812;28;101865;-82
2023/10/29 08:39:31;;;;;;;2.37;1.60;;;;;;;12.19;100.00;95124.50;5029046;28;105301;-82
2023/10/29 08:42:02;;;;;;;2.73;1.83;;;;;;;12.45;100.00;95125.69;5031787;28;105649;-82
2023/10/29 08:44:29;;;;;;;2.50;1.80;;;;;;;12.56;100.00;95126.28;5029018;28;105559;-82
2023/10/29 08:46:56;;;;;;;2.63;1.63;;;;;;;12.75;100.00;95127.81;5028063;28;105894;-82
2023/10/29 08:49:23;;;;;;;1.87;1.77;;;;;;;12.87;100.00;95132.69;5028756;28;102005;-82
2023/10/29 08:51:50;;;;;;;1.90;1.73;;;;;;;13.04;100.00;95131.03;5028797;28;104861;-82
2023/10/29 08:54:17;;;;;;;1.77;1.63;;;;;;;13.24;100.00;95129.88;5027921;28;105340;-82
2023/10/29 08:56:43;;;;;;;3.67;1.70;;;;;;;13.34;100.00;95129.66;5028491;28;102296;-82
2023/10/29 08:59:12;;;;;;;2.57;2.00;;;;;;;13.40;100.00;95134.59;5028555;28;105620;-82
2023/10/29 09:01:39;;;;;;;1.60;1.50;;;;;;;13.56;100.00;95148.44;5031404;28;105532;-82
2023/10/29 09:04:08;;;;;;;1.80;1.70;;;;;;;13.70;100.00;95151.88;5028639;28;104959;-82
2023/10/29 09:06:37;;;;;;;1.67;1.57;;;;;;;13.81;100.00;95158.59;5027891;28;105500;-82
2023/10/29 09:09:05;;;;;;;2.53;1.80;;;;;;;13.76;100.00;95159.50;5028300;28;101874;-82
2023/10/29 09:11:32;;;;;;;1.90;1.37;;;;;;;13.69;100.00;95161.00;5028516;28;105139;-82
2023/10/29 09:14:01;;;;;;;2.83;1.80;;;;;;;13.80;100.00;95171.16;5027915;28;104158;-82
2023/10/29 09:16:29;;;;;;;1.70;1.60;;;;;;;13.75;100.00;95157.13;5028393;28;102032;-82
2023/10/29 09:18:56;;;;;;;1.70;1.60;;;;;;;13.89;100.00;95163.25;5028537;28;104783;-82
2023/10/29 09:21:23;;;;;;;1.63;1.40;;;;;;;13.96;100.00;95168.97;5027818;28;105019;-82
2023/10/29 09:23:50;;;;;;;1.70;1.60;;;;;;;14.05;100.00;95165.28;5031495;28;101913;-82
2023/10/29 09:26:17;;;;;;;2.17;1.47;;;;;;;14.36;100.00;95162.72;5027750;28;105206;-82
2023/10/29 09:28:44;;;;;;;1.27;1.10;;;;;;;14.66;100.00;95172.72;5028253;28;101946;-82
2023/10/29 09:31:16;;;;;;;1.10;1.00;;;;;;;14.95;100.00;95165.81;5028181;28;105239;-82
2023/10/29 09:33:45;;;;;;;1.57;1.10;;;;;;;15.12;100.00;95176.63;5027556;28;105648;-82
2023/10/29 09:36:13;;;;;;;2.20;0.80;;;;;;;15.26;100.00;95168.47;5028587;27;101960;-82
2023/10/29 09:38:40;;;;;;;1.30;1.00;;;;;;;15.41;100.00;95174.25;5031590;28;105448;-82
2023/10/29 09:41:08;;;;;;;1.03;0.80;;;;;;;15.53;100.00;95168.31;5031034;28;106193;-82
2023/10/29 09:43:40;;;;;;;1.53;1.00;;;;;;;15.65;100.00;95169.28;5031746;28;101958;-82
2023/10/29 09:46:07;;;;;;;2.20;1.30;;;;;;;15.80;100.00;95168.06;5034416;28;105000;-82
2023/10/29 09:48:34;;;;;;;1.53;1.10;;;;;;;15.91;100.00;95172.81;5031629;28;101966;-82
2023/10/29 09:51:05;;;;;;;1.63;0.90;;;;;;;16.10;100.00;95180.56;5031510;28;105239;-82
2023/10/29 09:53:33;;;;;;;1.47;1.37;;;;;;;16.35;100.00;95174.44;5030857;28;105167;-82
2023/10/29 09:56:00;;;;;;;1.90;1.40;;;;;;;16.51;100.00;95170.22;5030677;27;102075;-82
2023/10/29 09:58:27;;;;;;;2.17;0.97;;;;;;;16.62;100.00;95169.56;5031522;28;105746;-82
2023/10/29 10:00:56;;;;;;;0.70;0.70;;;;;;;16.60;100.00;95163.72;5030868;28;106064;-82
2023/10/29 10:03:25;;;;;;;1.20;0.70;;;;;;;16.60;91.82;95163.72;5032707;28;101846;-82
2023/10/29 10:05:53;;;;;;;4.57;1.07;;;;;;;16.68;91.86;95165.59;5031254;28;105229;-82
2023/10/29 10:08:25;;;;;;;1.83;0.90;;;;;;;16.74;97.16;95163.56;5033968;28;104196;-82
2023/10/29 10:10:53;;;;;;;1.57;1.20;;;;;;;16.84;100.00;95155.19;5030888;28;105272;-82
2023/10/29 10:13:36;;;;;;;4.47;2.43;;;;;;;17.02;100.00;95144.09;5030497;28;105793;-82
2023/10/29 10:16:07;;;;;;;2.37;1.83;;;;;;;17.18;93.55;95144.34;5031286;28;101917;-82
2023/10/29 10:18:54;;;;;;;2.90;1.63;;;;;;;17.30;90.48;95149.81;5031035;28;103945;-82
2023/10/29 10:21:23;;;;;;;2.53;1.77;;;;;;;17.55;89.79;95148.97;5030205;28;105341;-82
2023/10/29 10:23:53;;;;;;;1.50;1.23;;;;;;;17.75;86.64;95140.16;5031017;28;101938;-82
2023/10/29 10:26:29;;;;;;;1.43;0.90;;;;;;;17.97;85.56;95142.53;5031049;28;105182;-81
2023/10/29 10:28:57;;;;;;;1.27;0.93;;;;;;;18.21;86.55;95137.34;5030289;28;105872;-81
2023/10/29 10:31:25;;;;;;;2.33;1.57;;;;;;;18.50;91.88;95135.38;5034305;28;102047;-81
2023/10/29 10:34:08;;;;;;;0.87;0.83;;;;;;;18.52;74.67;95130.44;5030169;28;105363;-81
2023/10/29 10:36:35;;;;;;;1.20;1.10;;;;;;;18.69;73.00;95127.59;5030817;28;101784;-81
2023/10/29 10:39:05;;;;;;;1.37;0.80;;;;;;;19.05;64.71;95129.63;5030787;28;105124;-81
2023/10/29 10:41:43;;;;;;;1.93;1.40;;;;;;;19.28;60.48;95133.50;5031330;28;103222;-82
2023/10/29 10:44:11;;;;;;;1.33;1.03;;;;;;;19.52;59.01;95123.53;5030739;28;102473;-82
2023/10/29 10:46:42;;;;;;;1.03;0.90;;;;;;;19.71;62.62;95121.06;5030477;27;104824;-82
2023/10/29 10:49:11;;;;;;;0.63;0.60;;;;;;;19.75;58.54;95110.38;5031244;28;102932;-82
2023/10/29 10:51:40;;;;;;;0.90;0.90;;;;;;;19.95;59.79;95112.94;5030344;28;101820;-82
2023/10/29 10:54:09;;;;;;;4.63;1.10;;;;;;;20.18;59.66;95113.28;5034806;28;102666;-82
2023/10/29 10:56:37;;;;;;;2.33;1.17;;;;;;;20.58;51.61;95106.72;5029991;28;102200;-82
2023/10/29 10:59:05;;;;;;;1.17;0.60;;;;;;;20.73;43.73;95094.41;5030406;28;105508;-82
2023/10/29 11:01:35;;;;;;;1.30;1.00;;;;;;;21.01;44.97;95106.00;5029803;28;105348;-82
2023/10/29 11:04:03;;;;;;;0.93;0.50;;;;;;;21.05;42.66;95098.75;5030579;28;101918;-82
2023/10/29 11:06:30;;;;;;;0.50;0.50;;;;;;;21.15;44.35;95100.97;5030082;28;104859;-82
2023/10/29 11:08:58;;;;;;;0.53;0.53;;;;;;;21.31;42.08;95090.94;5013014;28;105466;-82
2023/10/29 11:11:29;;;;;;;0.63;0.60;;;;;;;21.45;42.49;95097.47;5030118;28;101871;-82
2023/10/29 11:14:10;;;;;;;2.03;0.90;;;;;;;21.40;41.41;95094.25;5033106;28;105680;-82
2023/10/29 11:16:47;;;;;;;1.30;0.50;;;;;;;21.40;40.18;95095.03;5030175;28;102126;-82
2023/10/29 11:19:46;;;;;;;2.03;0.60;;;;;;;21.54;41.58;95094.59;5030167;28;105631;-82
2023/10/29 11:22:17;;;;;;;0.57;0.50;;;;;;;21.69;42.46;95091.13;4932596;28;104378;-82
2023/10/29 11:24:44;;;;;;;0.70;0.30;;;;;;;21.62;39.05;95085.50;5010069;28;102293;-82
2023/10/29 11:27:43;;;;;;;1.83;0.50;;;;;;;21.60;39.06;95085.06;5030056;28;105743;-82